sensor_id;sensor_type;location;lat;lon;timestamp;P1;durP1;ratioP1;P2;durP2;ratioP2
59786;SDS011;45672;51.612;5.536;2023-05-10T00:00:31;15.13;;;11.43;;
59786;SDS011;45672;51.612;5.536;2023-05-10T00:02:57;12.98;;;10.60;;
59786;SDS011;45672;51.612;5.536;2023-05-10T00:05:22;15.07;;;12.23;;
59786;SDS011;45672;51.612;5.536;2023-05-10T00:07:47;15.52;;;12.50;;
59786;SDS011;45672;51.612;5.536;2023-05-10T00:10:13;20.92;;;13.43;;
59786;SDS011;45672;51.612;5.536;2023-05-10T00:12:38;20.65;;;13.50;;
59786;SDS011;45672;51.612;5.536;2023-05-10T00:15:04;20.40;;;14.40;;
59786;SDS011;45672;51.612;5.536;2023-05-10T00:17:30;22.08;;;15.35;;
59786;SDS011;45672;51.612;5.536;2023-05-10T00:19:55;21.80;;;15.65;;
59786;SDS011;45672;51.612;5.536;2023-05-10T00:22:20;24.75;;;16.67;;
59786;SDS011;45672;51.612;5.536;2023-05-10T00:24:46;24.33;;;16.42;;
59786;SDS011;45672;51.612;5.536;2023-05-10T00:27:11;25.15;;;16.48;;
59786;SDS011;45672;51.612;5.536;2023-05-10T00:29:36;24.77;;;16.67;;
59786;SDS011;45672;51.612;5.536;2023-05-10T00:32:02;28.92;;;16.75;;
59786;SDS011;45672;51.612;5.536;2023-05-10T00:34:27;30.05;;;16.55;;
59786;SDS011;45672;51.612;5.536;2023-05-10T00:36:53;27.05;;;18.02;;
59786;SDS011;45672;51.612;5.536;2023-05-10T00:39:18;29.63;;;17.58;;
59786;SDS011;45672;51.612;5.536;2023-05-10T00:41:43;27.90;;;18.05;;
59786;SDS011;45672;51.612;5.536;2023-05-10T00:44:09;29.10;;;18.17;;
59786;SDS011;45672;51.612;5.536;2023-05-10T00:46:34;28.67;;;18.30;;
59786;SDS011;45672;51.612;5.536;2023-05-10T00:49:00;31.33;;;19.77;;
59786;SDS011;45672;51.612;5.536;2023-05-10T00:51:26;30.63;;;19.50;;
59786;SDS011;45672;51.612;5.536;2023-05-10T00:53:51;30.35;;;19.20;;
59786;SDS011;45672;51.612;5.536;2023-05-10T00:56:17;30.48;;;19.15;;
59786;SDS011;45672;51.612;5.536;2023-05-10T00:58:42;31.67;;;19.15;;
59786;SDS011;45672;51.612;5.536;2023-05-10T01:01:08;34.08;;;19.83;;
59786;SDS011;45672;51.612;5.536;2023-05-10T01:03:34;35.75;;;21.40;;
59786;SDS011;45672;51.612;5.536;2023-05-10T01:06:01;36.53;;;20.73;;
59786;SDS011;45672;51.612;5.536;2023-05-10T01:08:26;36.13;;;21.48;;
59786;SDS011;45672;51.612;5.536;2023-05-10T01:10:51;35.88;;;21.83;;
59786;SDS011;45672;51.612;5.536;2023-05-10T01:13:30;38.25;;;21.20;;
59786;SDS011;45672;51.612;5.536;2023-05-10T01:16:02;35.97;;;21.13;;
59786;SDS011;45672;51.612;5.536;2023-05-10T01:18:29;40.38;;;22.52;;
59786;SDS011;45672;51.612;5.536;2023-05-10T01:23:43;35.63;;;21.63;;
59786;SDS011;45672;51.612;5.536;2023-05-10T01:26:26;42.88;;;22.88;;
59786;SDS011;45672;51.612;5.536;2023-05-10T01:29:27;35.30;;;22.00;;
59786;SDS011;45672;51.612;5.536;2023-05-10T01:32:24;39.13;;;23.27;;
59786;SDS011;45672;51.612;5.536;2023-05-10T01:35:17;37.80;;;22.02;;
59786;SDS011;45672;51.612;5.536;2023-05-10T01:41:16;40.15;;;23.50;;
59786;SDS011;45672;51.612;5.536;2023-05-10T01:46:44;48.33;;;25.30;;
59786;SDS011;45672;51.612;5.536;2023-05-10T01:49:17;49.00;;;27.08;;
59786;SDS011;45672;51.612;5.536;2023-05-10T01:51:50;51.53;;;27.90;;
59786;SDS011;45672;51.612;5.536;2023-05-10T01:54:19;55.17;;;27.40;;
59786;SDS011;45672;51.612;5.536;2023-05-10T01:56:47;57.10;;;29.10;;
59786;SDS011;45672;51.612;5.536;2023-05-10T01:59:33;58.47;;;30.58;;
59786;SDS011;45672;51.612;5.536;2023-05-10T02:02:05;62.38;;;31.30;;
59786;SDS011;45672;51.612;5.536;2023-05-10T02:04:32;63.88;;;31.25;;
59786;SDS011;45672;51.612;5.536;2023-05-10T02:07:02;71.85;;;33.15;;
59786;SDS011;45672;51.612;5.536;2023-05-10T02:09:28;71.38;;;33.00;;
59786;SDS011;45672;51.612;5.536;2023-05-10T02:11:57;72.80;;;33.95;;
59786;SDS011;45672;51.612;5.536;2023-05-10T02:14:24;74.03;;;34.63;;
59786;SDS011;45672;51.612;5.536;2023-05-10T02:16:51;77.55;;;35.00;;
59786;SDS011;45672;51.612;5.536;2023-05-10T02:19:18;76.82;;;36.58;;
59786;SDS011;45672;51.612;5.536;2023-05-10T02:21:44;73.82;;;35.92;;
59786;SDS011;45672;51.612;5.536;2023-05-10T02:24:11;79.57;;;35.50;;
59786;SDS011;45672;51.612;5.536;2023-05-10T02:26:37;82.97;;;37.00;;
59786;SDS011;45672;51.612;5.536;2023-05-10T02:29:04;79.90;;;38.15;;
59786;SDS011;45672;51.612;5.536;2023-05-10T02:31:32;84.40;;;38.17;;
59786;SDS011;45672;51.612;5.536;2023-05-10T02:33:58;82.57;;;37.95;;
59786;SDS011;45672;51.612;5.536;2023-05-10T02:36:25;79.72;;;37.03;;
59786;SDS011;45672;51.612;5.536;2023-05-10T02:38:52;76.55;;;36.38;;
59786;SDS011;45672;51.612;5.536;2023-05-10T02:41:19;74.53;;;36.80;;
59786;SDS011;45672;51.612;5.536;2023-05-10T02:43:49;78.30;;;38.33;;
59786;SDS011;45672;51.612;5.536;2023-05-10T02:46:16;76.25;;;37.17;;
59786;SDS011;45672;51.612;5.536;2023-05-10T02:48:42;77.47;;;36.97;;
59786;SDS011;45672;51.612;5.536;2023-05-10T02:51:07;72.57;;;37.78;;
59786;SDS011;45672;51.612;5.536;2023-05-10T02:53:34;70.10;;;35.95;;
59786;SDS011;45672;51.612;5.536;2023-05-10T02:56:04;66.68;;;36.53;;
59786;SDS011;45672;51.612;5.536;2023-05-10T02:58:32;68.47;;;35.88;;
59786;SDS011;45672;51.612;5.536;2023-05-10T03:00:59;63.05;;;36.30;;
59786;SDS011;45672;51.612;5.536;2023-05-10T03:03:24;70.63;;;36.70;;
59786;SDS011;45672;51.612;5.536;2023-05-10T03:05:50;68.13;;;36.83;;
59786;SDS011;45672;51.612;5.536;2023-05-10T03:08:15;70.43;;;36.13;;
59786;SDS011;45672;51.612;5.536;2023-05-10T03:10:42;69.95;;;37.83;;
59786;SDS011;45672;51.612;5.536;2023-05-10T03:16:10;74.55;;;36.53;;
59786;SDS011;45672;51.612;5.536;2023-05-10T03:19:26;71.83;;;37.27;;
59786;SDS011;45672;51.612;5.536;2023-05-10T03:21:36;74.13;;;38.30;;
59786;SDS011;45672;51.612;5.536;2023-05-10T03:24:06;71.65;;;37.80;;
59786;SDS011;45672;51.612;5.536;2023-05-10T03:26:33;73.00;;;39.40;;
59786;SDS011;45672;51.612;5.536;2023-05-10T03:28:59;74.68;;;39.50;;
59786;SDS011;45672;51.612;5.536;2023-05-10T03:31:26;74.95;;;41.35;;
59786;SDS011;45672;51.612;5.536;2023-05-10T03:33:52;81.60;;;43.20;;
59786;SDS011;45672;51.612;5.536;2023-05-10T03:36:17;75.30;;;40.88;;
59786;SDS011;45672;51.612;5.536;2023-05-10T03:38:43;72.80;;;40.35;;
59786;SDS011;45672;51.612;5.536;2023-05-10T03:41:09;78.57;;;40.78;;
59786;SDS011;45672;51.612;5.536;2023-05-10T03:43:34;76.93;;;41.25;;
59786;SDS011;45672;51.612;5.536;2023-05-10T03:46:03;78.85;;;42.55;;
59786;SDS011;45672;51.612;5.536;2023-05-10T03:48:29;77.63;;;42.17;;
59786;SDS011;45672;51.612;5.536;2023-05-10T03:50:55;82.97;;;42.05;;
59786;SDS011;45672;51.612;5.536;2023-05-10T03:53:20;74.95;;;40.55;;
59786;SDS011;45672;51.612;5.536;2023-05-10T03:55:45;82.97;;;42.50;;
59786;SDS011;45672;51.612;5.536;2023-05-10T03:58:11;74.25;;;41.30;;
59786;SDS011;45672;51.612;5.536;2023-05-10T04:00:37;74.68;;;40.55;;
59786;SDS011;45672;51.612;5.536;2023-05-10T04:03:02;78.18;;;41.20;;
59786;SDS011;45672;51.612;5.536;2023-05-10T04:05:28;69.50;;;39.70;;
59786;SDS011;45672;51.612;5.536;2023-05-10T04:07:53;66.82;;;36.10;;
59786;SDS011;45672;51.612;5.536;2023-05-10T04:10:18;63.83;;;33.40;;
59786;SDS011;45672;51.612;5.536;2023-05-10T04:12:44;62.42;;;34.35;;
59786;SDS011;45672;51.612;5.536;2023-05-10T04:15:09;64.70;;;33.28;;
59786;SDS011;45672;51.612;5.536;2023-05-10T04:17:35;61.30;;;31.38;;
59786;SDS011;45672;51.612;5.536;2023-05-10T04:20:00;56.30;;;29.90;;
59786;SDS011;45672;51.612;5.536;2023-05-10T04:22:25;55.78;;;31.20;;
59786;SDS011;45672;51.612;5.536;2023-05-10T04:24:52;62.42;;;32.75;;
59786;SDS011;45672;51.612;5.536;2023-05-10T04:27:17;60.75;;;32.75;;
59786;SDS011;45672;51.612;5.536;2023-05-10T04:29:43;58.35;;;30.83;;
59786;SDS011;45672;51.612;5.536;2023-05-10T04:32:08;58.40;;;31.52;;
59786;SDS011;45672;51.612;5.536;2023-05-10T04:34:35;61.90;;;31.92;;
59786;SDS011;45672;51.612;5.536;2023-05-10T04:37:00;55.42;;;30.15;;
59786;SDS011;45672;51.612;5.536;2023-05-10T04:39:26;59.80;;;30.70;;
59786;SDS011;45672;51.612;5.536;2023-05-10T04:41:51;55.33;;;30.92;;
59786;SDS011;45672;51.612;5.536;2023-05-10T04:44:16;59.17;;;31.70;;
59786;SDS011;45672;51.612;5.536;2023-05-10T04:46:42;69.22;;;30.85;;
59786;SDS011;45672;51.612;5.536;2023-05-10T04:49:07;68.03;;;32.25;;
59786;SDS011;45672;51.612;5.536;2023-05-10T04:51:32;60.97;;;30.85;;
59786;SDS011;45672;51.612;5.536;2023-05-10T04:53:58;60.13;;;30.77;;
59786;SDS011;45672;51.612;5.536;2023-05-10T04:56:23;55.85;;;28.27;;
59786;SDS011;45672;51.612;5.536;2023-05-10T04:58:48;49.30;;;26.95;;
59786;SDS011;45672;51.612;5.536;2023-05-10T05:01:14;53.88;;;26.80;;
59786;SDS011;45672;51.612;5.536;2023-05-10T05:03:39;49.65;;;26.17;;
59786;SDS011;45672;51.612;5.536;2023-05-10T05:06:05;44.60;;;25.38;;
59786;SDS011;45672;51.612;5.536;2023-05-10T05:08:30;45.08;;;25.42;;
59786;SDS011;45672;51.612;5.536;2023-05-10T05:10:56;43.60;;;25.27;;
59786;SDS011;45672;51.612;5.536;2023-05-10T05:13:21;47.25;;;24.50;;
59786;SDS011;45672;51.612;5.536;2023-05-10T05:15:47;47.88;;;25.17;;
59786;SDS011;45672;51.612;5.536;2023-05-10T05:18:12;45.28;;;24.42;;
59786;SDS011;45672;51.612;5.536;2023-05-10T05:20:37;46.38;;;23.63;;
59786;SDS011;45672;51.612;5.536;2023-05-10T05:23:02;43.47;;;23.92;;
59786;SDS011;45672;51.612;5.536;2023-05-10T05:25:28;42.47;;;23.70;;
59786;SDS011;45672;51.612;5.536;2023-05-10T05:27:53;45.15;;;23.63;;
59786;SDS011;45672;51.612;5.536;2023-05-10T05:30:18;40.92;;;24.30;;
59786;SDS011;45672;51.612;5.536;2023-05-10T05:32:44;43.80;;;25.23;;
59786;SDS011;45672;51.612;5.536;2023-05-10T05:35:09;45.55;;;25.23;;
59786;SDS011;45672;51.612;5.536;2023-05-10T05:37:35;38.38;;;23.35;;
59786;SDS011;45672;51.612;5.536;2023-05-10T05:40:00;39.80;;;25.00;;
59786;SDS011;45672;51.612;5.536;2023-05-10T05:42:26;37.13;;;23.83;;
59786;SDS011;45672;51.612;5.536;2023-05-10T05:44:52;34.22;;;23.38;;
59786;SDS011;45672;51.612;5.536;2023-05-10T05:47:17;34.35;;;23.45;;
59786;SDS011;45672;51.612;5.536;2023-05-10T05:49:43;38.50;;;24.98;;
59786;SDS011;45672;51.612;5.536;2023-05-10T05:52:10;38.75;;;24.00;;
59786;SDS011;45672;51.612;5.536;2023-05-10T05:54:36;35.78;;;23.73;;
59786;SDS011;45672;51.612;5.536;2023-05-10T05:57:01;37.10;;;23.55;;
59786;SDS011;45672;51.612;5.536;2023-05-10T05:59:26;36.85;;;23.23;;
59786;SDS011;45672;51.612;5.536;2023-05-10T06:01:52;36.13;;;22.77;;
59786;SDS011;45672;51.612;5.536;2023-05-10T06:04:17;35.17;;;22.00;;
59786;SDS011;45672;51.612;5.536;2023-05-10T06:06:43;37.50;;;22.10;;
59786;SDS011;45672;51.612;5.536;2023-05-10T06:09:09;33.22;;;21.75;;
59786;SDS011;45672;51.612;5.536;2023-05-10T06:11:35;33.85;;;21.25;;
59786;SDS011;45672;51.612;5.536;2023-05-10T06:14:00;32.90;;;22.52;;
59786;SDS011;45672;51.612;5.536;2023-05-10T06:16:26;35.63;;;23.60;;
59786;SDS011;45672;51.612;5.536;2023-05-10T06:18:54;37.55;;;22.88;;
59786;SDS011;45672;51.612;5.536;2023-05-10T06:21:20;35.30;;;21.77;;
59786;SDS011;45672;51.612;5.536;2023-05-10T06:23:45;37.40;;;23.23;;
59786;SDS011;45672;51.612;5.536;2023-05-10T06:26:11;37.05;;;21.88;;
59786;SDS011;45672;51.612;5.536;2023-05-10T06:28:36;37.28;;;22.17;;
59786;SDS011;45672;51.612;5.536;2023-05-10T06:31:04;37.55;;;22.58;;
59786;SDS011;45672;51.612;5.536;2023-05-10T06:33:29;41.00;;;23.30;;
59786;SDS011;45672;51.612;5.536;2023-05-10T06:35:55;41.75;;;24.05;;
59786;SDS011;45672;51.612;5.536;2023-05-10T06:38:20;44.28;;;24.13;;
59786;SDS011;45672;51.612;5.536;2023-05-10T06:40:46;38.60;;;22.67;;
59786;SDS011;45672;51.612;5.536;2023-05-10T06:43:11;37.17;;;22.85;;
59786;SDS011;45672;51.612;5.536;2023-05-10T06:45:37;39.05;;;23.17;;
59786;SDS011;45672;51.612;5.536;2023-05-10T06:48:02;42.10;;;23.15;;
59786;SDS011;45672;51.612;5.536;2023-05-10T06:50:27;36.97;;;23.33;;
59786;SDS011;45672;51.612;5.536;2023-05-10T06:52:53;46.75;;;23.83;;
59786;SDS011;45672;51.612;5.536;2023-05-10T06:55:19;35.03;;;24.23;;
59786;SDS011;45672;51.612;5.536;2023-05-10T06:57:44;41.42;;;25.08;;
59786;SDS011;45672;51.612;5.536;2023-05-10T07:00:09;36.88;;;24.30;;
59786;SDS011;45672;51.612;5.536;2023-05-10T07:02:35;35.08;;;22.38;;
59786;SDS011;45672;51.612;5.536;2023-05-10T07:05:01;40.88;;;23.25;;
59786;SDS011;45672;51.612;5.536;2023-05-10T07:07:27;37.63;;;24.13;;
59786;SDS011;45672;51.612;5.536;2023-05-10T07:09:52;40.92;;;25.20;;
59786;SDS011;45672;51.612;5.536;2023-05-10T07:12:17;42.92;;;24.70;;
59786;SDS011;45672;51.612;5.536;2023-05-10T07:14:43;34.83;;;23.67;;
59786;SDS011;45672;51.612;5.536;2023-05-10T07:17:08;38.60;;;25.13;;
59786;SDS011;45672;51.612;5.536;2023-05-10T07:19:34;40.08;;;26.02;;
59786;SDS011;45672;51.612;5.536;2023-05-10T07:21:59;45.30;;;26.30;;
59786;SDS011;45672;51.612;5.536;2023-05-10T07:24:25;41.50;;;24.45;;
59786;SDS011;45672;51.612;5.536;2023-05-10T07:26:50;35.17;;;23.33;;
59786;SDS011;45672;51.612;5.536;2023-05-10T07:29:15;38.83;;;25.05;;
59786;SDS011;45672;51.612;5.536;2023-05-10T07:31:40;40.05;;;24.63;;
59786;SDS011;45672;51.612;5.536;2023-05-10T07:34:08;49.85;;;26.88;;
59786;SDS011;45672;51.612;5.536;2023-05-10T07:36:34;43.30;;;26.40;;
59786;SDS011;45672;51.612;5.536;2023-05-10T07:39:00;43.20;;;25.92;;
59786;SDS011;45672;51.612;5.536;2023-05-10T07:41:25;43.80;;;26.65;;
59786;SDS011;45672;51.612;5.536;2023-05-10T07:43:51;45.83;;;27.90;;
59786;SDS011;45672;51.612;5.536;2023-05-10T07:46:16;49.47;;;27.38;;
59786;SDS011;45672;51.612;5.536;2023-05-10T07:48:41;40.75;;;25.52;;
59786;SDS011;45672;51.612;5.536;2023-05-10T07:51:07;45.13;;;25.40;;
59786;SDS011;45672;51.612;5.536;2023-05-10T07:53:34;41.45;;;25.75;;
59786;SDS011;45672;51.612;5.536;2023-05-10T07:56:19;45.35;;;26.65;;
59786;SDS011;45672;51.612;5.536;2023-05-10T07:58:47;41.42;;;24.23;;
59786;SDS011;45672;51.612;5.536;2023-05-10T08:01:12;34.72;;;22.65;;
59786;SDS011;45672;51.612;5.536;2023-05-10T08:03:38;37.75;;;23.55;;
59786;SDS011;45672;51.612;5.536;2023-05-10T08:06:03;35.78;;;23.25;;
59786;SDS011;45672;51.612;5.536;2023-05-10T08:08:29;36.90;;;23.10;;
59786;SDS011;45672;51.612;5.536;2023-05-10T08:10:54;37.17;;;23.58;;
59786;SDS011;45672;51.612;5.536;2023-05-10T08:13:19;43.15;;;24.58;;
59786;SDS011;45672;51.612;5.536;2023-05-10T08:15:45;34.22;;;22.98;;
59786;SDS011;45672;51.612;5.536;2023-05-10T08:18:11;32.63;;;23.40;;
59786;SDS011;45672;51.612;5.536;2023-05-10T08:20:36;34.40;;;21.20;;
59786;SDS011;45672;51.612;5.536;2023-05-10T08:23:02;28.17;;;19.95;;
59786;SDS011;45672;51.612;5.536;2023-05-10T08:25:27;33.38;;;20.58;;
59786;SDS011;45672;51.612;5.536;2023-05-10T08:27:52;29.58;;;19.48;;
59786;SDS011;45672;51.612;5.536;2023-05-10T08:30:18;27.02;;;18.48;;
59786;SDS011;45672;51.612;5.536;2023-05-10T08:32:43;24.35;;;17.17;;
59786;SDS011;45672;51.612;5.536;2023-05-10T08:35:08;26.50;;;17.38;;
59786;SDS011;45672;51.612;5.536;2023-05-10T08:37:33;25.17;;;17.48;;
59786;SDS011;45672;51.612;5.536;2023-05-10T08:39:59;23.35;;;17.05;;
59786;SDS011;45672;51.612;5.536;2023-05-10T08:42:24;26.45;;;17.83;;
59786;SDS011;45672;51.612;5.536;2023-05-10T08:44:53;25.50;;;16.73;;
59786;SDS011;45672;51.612;5.536;2023-05-10T08:47:20;24.52;;;15.93;;
59786;SDS011;45672;51.612;5.536;2023-05-10T08:49:46;22.73;;;15.30;;
59786;SDS011;45672;51.612;5.536;2023-05-10T08:52:16;20.30;;;15.35;;
59786;SDS011;45672;51.612;5.536;2023-05-10T08:54:43;19.40;;;13.88;;
59786;SDS011;45672;51.612;5.536;2023-05-10T08:57:09;19.58;;;14.40;;
59786;SDS011;45672;51.612;5.536;2023-05-10T08:59:35;23.30;;;14.40;;
59786;SDS011;45672;51.612;5.536;2023-05-10T09:02:00;15.57;;;12.77;;
59786;SDS011;45672;51.612;5.536;2023-05-10T09:04:27;17.63;;;13.30;;
59786;SDS011;45672;51.612;5.536;2023-05-10T09:06:54;18.80;;;13.05;;
59786;SDS011;45672;51.612;5.536;2023-05-10T09:09:19;16.05;;;13.02;;
59786;SDS011;45672;51.612;5.536;2023-05-10T09:11:46;16.90;;;12.45;;
59786;SDS011;45672;51.612;5.536;2023-05-10T09:14:12;14.00;;;11.70;;
59786;SDS011;45672;51.612;5.536;2023-05-10T09:16:38;14.68;;;11.68;;
59786;SDS011;45672;51.612;5.536;2023-05-10T09:19:03;13.60;;;11.00;;
59786;SDS011;45672;51.612;5.536;2023-05-10T09:21:28;15.20;;;12.00;;
59786;SDS011;45672;51.612;5.536;2023-05-10T09:23:55;16.52;;;11.88;;
59786;SDS011;45672;51.612;5.536;2023-05-10T09:26:23;13.20;;;11.43;;
59786;SDS011;45672;51.612;5.536;2023-05-10T09:28:52;16.08;;;11.85;;
59786;SDS011;45672;51.612;5.536;2023-05-10T09:31:22;14.55;;;11.65;;
59786;SDS011;45672;51.612;5.536;2023-05-10T09:33:49;17.27;;;11.55;;
59786;SDS011;45672;51.612;5.536;2023-05-10T09:36:15;13.45;;;10.30;;
59786;SDS011;45672;51.612;5.536;2023-05-10T09:38:50;16.40;;;9.52;;
59786;SDS011;45672;51.612;5.536;2023-05-10T09:41:23;12.25;;;8.85;;
59786;SDS011;45672;51.612;5.536;2023-05-10T09:46:16;13.68;;;9.15;;
59786;SDS011;45672;51.612;5.536;2023-05-10T09:48:42;12.57;;;9.85;;
59786;SDS011;45672;51.612;5.536;2023-05-10T09:51:09;12.18;;;9.73;;
59786;SDS011;45672;51.612;5.536;2023-05-10T09:53:35;14.82;;;10.65;;
59786;SDS011;45672;51.612;5.536;2023-05-10T09:56:00;16.75;;;10.93;;
59786;SDS011;45672;51.612;5.536;2023-05-10T09:58:25;16.58;;;10.70;;
59786;SDS011;45672;51.612;5.536;2023-05-10T10:00:51;13.73;;;9.88;;
59786;SDS011;45672;51.612;5.536;2023-05-10T10:03:18;12.55;;;10.60;;
59786;SDS011;45672;51.612;5.536;2023-05-10T10:05:45;12.35;;;9.70;;
59786;SDS011;45672;51.612;5.536;2023-05-10T10:08:12;11.05;;;9.45;;
59786;SDS011;45672;51.612;5.536;2023-05-10T10:10:38;14.35;;;8.80;;
59786;SDS011;45672;51.612;5.536;2023-05-10T10:13:05;11.65;;;8.48;;
59786;SDS011;45672;51.612;5.536;2023-05-10T10:15:31;10.00;;;7.95;;
59786;SDS011;45672;51.612;5.536;2023-05-10T10:17:58;10.25;;;8.40;;
59786;SDS011;45672;51.612;5.536;2023-05-10T10:20:24;9.07;;;7.55;;
59786;SDS011;45672;51.612;5.536;2023-05-10T10:22:50;12.52;;;7.60;;
59786;SDS011;45672;51.612;5.536;2023-05-10T10:25:16;8.63;;;7.43;;
59786;SDS011;45672;51.612;5.536;2023-05-10T10:33:13;8.95;;;6.30;;
59786;SDS011;45672;51.612;5.536;2023-05-10T10:35:54;8.07;;;6.43;;
59786;SDS011;45672;51.612;5.536;2023-05-10T10:38:22;7.43;;;5.70;;
59786;SDS011;45672;51.612;5.536;2023-05-10T10:40:48;8.32;;;6.03;;
59786;SDS011;45672;51.612;5.536;2023-05-10T10:43:26;10.10;;;6.63;;
59786;SDS011;45672;51.612;5.536;2023-05-10T10:48:39;6.68;;;6.05;;
59786;SDS011;45672;51.612;5.536;2023-05-10T10:51:23;9.07;;;6.72;;
59786;SDS011;45672;51.612;5.536;2023-05-10T10:53:49;16.33;;;9.43;;
59786;SDS011;45672;51.612;5.536;2023-05-10T10:56:14;26.27;;;12.52;;
59786;SDS011;45672;51.612;5.536;2023-05-10T10:58:40;25.20;;;11.38;;
59786;SDS011;45672;51.612;5.536;2023-05-10T11:01:16;22.80;;;11.95;;
59786;SDS011;45672;51.612;5.536;2023-05-10T11:06:32;21.33;;;14.23;;
59786;SDS011;45672;51.612;5.536;2023-05-10T11:08:59;19.50;;;13.65;;
59786;SDS011;45672;51.612;5.536;2023-05-10T11:11:30;17.38;;;13.05;;
59786;SDS011;45672;51.612;5.536;2023-05-10T11:13:55;18.63;;;12.85;;
59786;SDS011;45672;51.612;5.536;2023-05-10T11:16:29;18.45;;;13.75;;
59786;SDS011;45672;51.612;5.536;2023-05-10T11:19:13;17.35;;;13.43;;
59786;SDS011;45672;51.612;5.536;2023-05-10T11:24:40;21.65;;;13.90;;
59786;SDS011;45672;51.612;5.536;2023-05-10T11:27:21;22.23;;;14.95;;
59786;SDS011;45672;51.612;5.536;2023-05-10T11:29:46;25.80;;;15.10;;
59786;SDS011;45672;51.612;5.536;2023-05-10T11:32:16;22.45;;;15.27;;
59786;SDS011;45672;51.612;5.536;2023-05-10T11:34:42;24.63;;;16.45;;
59786;SDS011;45672;51.612;5.536;2023-05-10T11:37:13;23.27;;;14.73;;
59786;SDS011;45672;51.612;5.536;2023-05-10T11:39:38;24.13;;;15.20;;
59786;SDS011;45672;51.612;5.536;2023-05-10T11:42:03;20.73;;;14.65;;
59786;SDS011;45672;51.612;5.536;2023-05-10T11:44:29;17.17;;;12.85;;
59786;SDS011;45672;51.612;5.536;2023-05-10T11:46:58;17.52;;;14.48;;
59786;SDS011;45672;51.612;5.536;2023-05-10T11:49:25;20.95;;;14.40;;
59786;SDS011;45672;51.612;5.536;2023-05-10T11:51:50;20.67;;;15.00;;
59786;SDS011;45672;51.612;5.536;2023-05-10T11:54:16;28.00;;;16.25;;
59786;SDS011;45672;51.612;5.536;2023-05-10T11:56:41;22.42;;;15.80;;
59786;SDS011;45672;51.612;5.536;2023-05-10T11:59:06;20.38;;;15.10;;
59786;SDS011;45672;51.612;5.536;2023-05-10T12:01:33;21.58;;;14.57;;
59786;SDS011;45672;51.612;5.536;2023-05-10T12:03:59;19.48;;;13.95;;
59786;SDS011;45672;51.612;5.536;2023-05-10T12:06:29;14.88;;;12.35;;
59786;SDS011;45672;51.612;5.536;2023-05-10T12:08:55;15.68;;;12.60;;
59786;SDS011;45672;51.612;5.536;2023-05-10T12:11:24;18.88;;;13.80;;
59786;SDS011;45672;51.612;5.536;2023-05-10T12:13:50;23.88;;;16.08;;
59786;SDS011;45672;51.612;5.536;2023-05-10T12:16:17;25.13;;;17.00;;
59786;SDS011;45672;51.612;5.536;2023-05-10T12:18:50;27.75;;;17.52;;
59786;SDS011;45672;51.612;5.536;2023-05-10T12:21:17;28.55;;;18.20;;
59786;SDS011;45672;51.612;5.536;2023-05-10T12:23:44;27.88;;;18.08;;
59786;SDS011;45672;51.612;5.536;2023-05-10T12:26:11;29.15;;;17.13;;
59786;SDS011;45672;51.612;5.536;2023-05-10T12:28:37;29.95;;;18.33;;
59786;SDS011;45672;51.612;5.536;2023-05-10T12:31:04;30.38;;;18.45;;
59786;SDS011;45672;51.612;5.536;2023-05-10T12:33:40;39.80;;;20.02;;
59786;SDS011;45672;51.612;5.536;2023-05-10T12:36:08;33.75;;;18.95;;
59786;SDS011;45672;51.612;5.536;2023-05-10T12:38:35;25.85;;;15.73;;
59786;SDS011;45672;51.612;5.536;2023-05-10T12:41:11;16.60;;;12.13;;
59786;SDS011;45672;51.612;5.536;2023-05-10T12:43:38;59.25;;;11.95;;
59786;SDS011;45672;51.612;5.536;2023-05-10T12:46:14;51.20;;;12.30;;
59786;SDS011;45672;51.612;5.536;2023-05-10T12:48:40;26.05;;;12.68;;
59786;SDS011;45672;51.612;5.536;2023-05-10T12:51:07;19.13;;;11.80;;
59786;SDS011;45672;51.612;5.536;2023-05-10T12:53:34;21.38;;;14.95;;
59786;SDS011;45672;51.612;5.536;2023-05-10T12:56:00;22.35;;;14.88;;
59786;SDS011;45672;51.612;5.536;2023-05-10T12:58:25;24.00;;;16.13;;
59786;SDS011;45672;51.612;5.536;2023-05-10T13:00:51;28.38;;;17.20;;
59786;SDS011;45672;51.612;5.536;2023-05-10T13:03:16;27.20;;;17.90;;
59786;SDS011;45672;51.612;5.536;2023-05-10T13:05:42;33.17;;;19.58;;
59786;SDS011;45672;51.612;5.536;2023-05-10T13:08:07;29.92;;;19.13;;
59786;SDS011;45672;51.612;5.536;2023-05-10T13:10:32;33.92;;;23.25;;
59786;SDS011;45672;51.612;5.536;2023-05-10T13:12:58;34.42;;;22.67;;
59786;SDS011;45672;51.612;5.536;2023-05-10T13:15:23;30.05;;;21.88;;
59786;SDS011;45672;51.612;5.536;2023-05-10T13:17:49;32.55;;;20.02;;
59786;SDS011;45672;51.612;5.536;2023-05-10T13:20:15;24.58;;;17.70;;
59786;SDS011;45672;51.612;5.536;2023-05-10T13:22:41;24.05;;;17.63;;
59786;SDS011;45672;51.612;5.536;2023-05-10T13:25:08;22.17;;;15.70;;
59786;SDS011;45672;51.612;5.536;2023-05-10T13:27:33;18.38;;;15.38;;
59786;SDS011;45672;51.612;5.536;2023-05-10T13:29:59;14.85;;;12.05;;
59786;SDS011;45672;51.612;5.536;2023-05-10T13:32:24;14.93;;;12.45;;
59786;SDS011;45672;51.612;5.536;2023-05-10T13:34:50;14.93;;;12.82;;
59786;SDS011;45672;51.612;5.536;2023-05-10T13:37:16;10.23;;;9.27;;
59786;SDS011;45672;51.612;5.536;2023-05-10T13:39:41;10.98;;;9.63;;
59786;SDS011;45672;51.612;5.536;2023-05-10T13:42:06;11.02;;;9.98;;
59786;SDS011;45672;51.612;5.536;2023-05-10T13:44:32;12.68;;;11.02;;
59786;SDS011;45672;51.612;5.536;2023-05-10T13:46:58;11.65;;;10.45;;
59786;SDS011;45672;51.612;5.536;2023-05-10T13:49:24;12.63;;;11.32;;
59786;SDS011;45672;51.612;5.536;2023-05-10T13:51:49;12.35;;;11.02;;
59786;SDS011;45672;51.612;5.536;2023-05-10T13:54:15;13.45;;;11.43;;
59786;SDS011;45672;51.612;5.536;2023-05-10T13:56:44;15.15;;;11.40;;
59786;SDS011;45672;51.612;5.536;2023-05-10T13:59:09;16.45;;;13.38;;
59786;SDS011;45672;51.612;5.536;2023-05-10T14:01:35;18.50;;;14.00;;
59786;SDS011;45672;51.612;5.536;2023-05-10T14:04:01;17.80;;;13.45;;
59786;SDS011;45672;51.612;5.536;2023-05-10T14:06:26;14.93;;;12.73;;
59786;SDS011;45672;51.612;5.536;2023-05-10T14:08:52;16.20;;;14.38;;
59786;SDS011;45672;51.612;5.536;2023-05-10T14:11:17;18.40;;;13.82;;
59786;SDS011;45672;51.612;5.536;2023-05-10T14:13:42;15.45;;;12.23;;
59786;SDS011;45672;51.612;5.536;2023-05-10T14:16:08;15.98;;;13.25;;
59786;SDS011;45672;51.612;5.536;2023-05-10T14:18:33;15.35;;;13.48;;
59786;SDS011;45672;51.612;5.536;2023-05-10T14:20:59;18.52;;;13.57;;
59786;SDS011;45672;51.612;5.536;2023-05-10T14:23:24;13.02;;;11.73;;
59786;SDS011;45672;51.612;5.536;2023-05-10T14:25:52;13.40;;;11.65;;
59786;SDS011;45672;51.612;5.536;2023-05-10T14:28:18;13.52;;;12.20;;
59786;SDS011;45672;51.612;5.536;2023-05-10T14:30:45;16.55;;;12.07;;
59786;SDS011;45672;51.612;5.536;2023-05-10T14:33:10;14.82;;;12.68;;
59786;SDS011;45672;51.612;5.536;2023-05-10T14:35:35;17.42;;;13.80;;
59786;SDS011;45672;51.612;5.536;2023-05-10T14:38:01;16.58;;;14.88;;
59786;SDS011;45672;51.612;5.536;2023-05-10T14:40:28;17.63;;;15.40;;
59786;SDS011;45672;51.612;5.536;2023-05-10T14:42:53;18.80;;;16.65;;
59786;SDS011;45672;51.612;5.536;2023-05-10T14:45:19;23.20;;;16.33;;
59786;SDS011;45672;51.612;5.536;2023-05-10T14:47:45;21.20;;;17.30;;
59786;SDS011;45672;51.612;5.536;2023-05-10T14:50:11;23.77;;;17.80;;